createdAt,value
2019-05-12T00:02:31.820Z,76.89
2019-05-12T00:05:14.138Z,77.06
2019-05-12T00:07:58.929Z,77.24
2019-05-12T00:10:41.196Z,77.46
2019-05-12T00:13:15.764Z,77.69
2019-05-12T00:15:57.788Z,77.69
2019-05-12T00:18:32.061Z,77.72
2019-05-12T00:21:19.354Z,77.88
2019-05-12T00:24:11.605Z,78.10
2019-05-12T00:26:58.061Z,78.51
2019-05-12T00:29:48.583Z,78.58
2019-05-12T00:32:22.298Z,78.30
2019-05-12T00:34:55.879Z,78.23
2019-05-12T00:37:29.088Z,78.16
2019-05-12T00:40:12.487Z,78.14
2019-05-12T00:42:57.732Z,78.24
2019-05-12T00:45:30.516Z,78.16
2019-05-12T00:48:19.977Z,77.53
2019-05-12T00:50:53.883Z,77.50
2019-05-12T00:53:39.316Z,77.59
2019-05-12T00:56:03.231Z,77.85
2019-05-12T00:58:45.993Z,78.08
2019-05-12T01:01:29.047Z,78.09
2019-05-12T01:04:12.397Z,77.89
2019-05-12T01:06:45.713Z,77.98
2019-05-12T01:09:19.866Z,78.22
2019-05-12T01:11:53.037Z,78.22
2019-05-12T01:14:39.139Z,78.43
2019-05-12T01:17:21.801Z,78.19
2019-05-12T01:20:04.364Z,78.47
2019-05-12T01:22:50.344Z,78.76
2019-05-12T01:25:22.719Z,78.64
2019-05-12T01:28:05.023Z,78.77
2019-05-12T01:30:39.329Z,78.60
2019-05-12T01:33:13.106Z,78.57
2019-05-12T01:35:48.261Z,78.45
2019-05-12T01:38:22.387Z,78.53
2019-05-12T01:40:58.355Z,78.59
2019-05-12T01:43:40.594Z,78.89
2019-05-12T01:46:14.420Z,79.11
2019-05-12T01:48:49.160Z,79.00
2019-05-12T01:51:22.707Z,78.62
2019-05-12T01:54:10.197Z,78.46
2019-05-12T01:56:31.204Z,78.42
2019-05-12T01:59:05.212Z,78.51
2019-05-12T02:01:39.103Z,78.78
2019-05-12T02:04:21.865Z,79.21
2019-05-12T02:06:57.775Z,79.40
2019-05-12T02:09:33.352Z,79.32
2019-05-12T02:12:08.225Z,79.23
2019-05-12T02:14:42.637Z,79.25
2019-05-12T02:17:17.994Z,79.19
2019-05-12T02:20:00.811Z,79.11
2019-05-12T02:22:43.097Z,79.40
2019-05-12T02:25:18.436Z,79.63
2019-05-12T02:27:52.362Z,79.69
2019-05-12T02:30:35.628Z,79.53
2019-05-12T02:33:17.526Z,79.56
2019-05-12T02:35:51.037Z,79.36
2019-05-12T02:38:25.246Z,79.47
2019-05-12T02:41:07.618Z,79.34
2019-05-12T02:43:41.528Z,79.25
2019-05-12T02:46:25.510Z,78.90
2019-05-12T02:48:59.624Z,78.71
2019-05-12T02:51:44.708Z,79.11
2019-05-12T02:54:47.088Z,79.51
2019-05-12T02:57:14.324Z,79.83
2019-05-12T03:00:05.143Z,79.80
2019-05-12T03:02:38.510Z,79.71
2019-05-12T03:05:20.944Z,79.87
2019-05-12T03:07:56.359Z,79.70
2019-05-12T03:10:38.918Z,79.23
2019-05-12T03:13:14.684Z,78.89
2019-05-12T03:15:46.883Z,78.83
2019-05-12T03:18:20.769Z,78.60
2019-05-12T03:20:54.821Z,78.44
2019-05-12T03:23:28.710Z,78.33
2019-05-12T03:26:15.105Z,78.59
2019-05-12T03:28:56.735Z,78.64
2019-05-12T03:31:32.076Z,78.74
2019-05-12T03:34:09.323Z,78.99
2019-05-12T03:36:43.319Z,79.29
2019-05-12T03:39:16.091Z,79.20
2019-05-12T03:41:50.065Z,79.33
2019-05-12T03:44:25.167Z,79.71
2019-05-12T03:46:58.906Z,79.74
2019-05-12T03:49:34.766Z,79.64
2019-05-12T03:52:08.111Z,79.54
2019-05-12T03:54:51.077Z,79.34
2019-05-12T03:57:34.502Z,79.60
2019-05-12T04:00:08.463Z,79.66
2019-05-12T04:02:45.346Z,79.60
2019-05-12T04:05:26.197Z,79.47
2019-05-12T04:07:59.740Z,79.55
2019-05-12T04:10:35.326Z,79.67
2019-05-12T04:13:08.376Z,79.73
2019-05-12T04:15:41.547Z,79.59
2019-05-12T04:18:24.844Z,79.63
2019-05-12T04:20:58.511Z,79.73
2019-05-12T04:23:34.827Z,79.72
2019-05-12T04:26:12.130Z,79.99
2019-05-12T04:28:45.640Z,80.13
2019-05-12T04:31:17.955Z,80.12
2019-05-12T04:33:54.480Z,79.97
2019-05-12T04:36:26.359Z,79.87
2019-05-12T04:39:00.516Z,80.25
2019-05-12T04:41:35.376Z,80.22
2019-05-12T04:44:08.779Z,80.40
2019-05-12T04:46:44.957Z,80.69
2019-05-12T04:49:26.087Z,80.81
2019-05-12T04:52:08.527Z,80.74
2019-05-12T04:54:44.564Z,80.70
2019-05-12T04:57:21.233Z,80.59
2019-05-12T04:59:54.412Z,80.66
2019-05-12T05:02:39.032Z,80.79
2019-05-12T05:05:14.564Z,80.91
2019-05-12T05:08:04.363Z,80.82
2019-05-12T05:10:47.341Z,80.91
2019-05-12T05:13:21.275Z,80.89
2019-05-12T05:16:05.398Z,80.80
2019-05-12T05:18:54.297Z,80.87
2019-05-12T05:21:37.439Z,80.75
2019-05-12T05:24:19.832Z,80.66
2019-05-12T05:26:54.055Z,80.10
2019-05-12T05:29:27.780Z,79.71
2019-05-12T05:32:00.977Z,79.51
2019-05-12T05:34:36.116Z,79.46
2019-05-12T05:37:18.773Z,79.22
2019-05-12T05:40:07.409Z,79.04
2019-05-12T05:42:43.928Z,78.19
2019-05-12T05:45:22.147Z,77.98
2019-05-12T05:47:54.268Z,77.35
2019-05-12T05:50:29.451Z,77.53
2019-05-12T05:53:03.836Z,76.92
2019-05-12T05:55:37.700Z,76.93
2019-05-12T05:58:11.657Z,77.21
2019-05-12T06:00:45.475Z,76.55
2019-05-12T06:03:23.061Z,75.67
2019-05-12T06:05:54.347Z,75.90
2019-05-12T06:08:28.248Z,75.91
2019-05-12T06:11:26.590Z,75.32
2019-05-12T06:13:54.036Z,75.21
2019-05-12T06:16:27.549Z,74.42
2019-05-12T06:19:00.774Z,73.89
2019-05-12T06:21:38.192Z,73.82
2019-05-12T06:24:15.548Z,73.72
2019-05-12T06:26:56.804Z,72.65
2019-05-12T06:29:22.717Z,71.08
2019-05-12T06:32:10.624Z,70.08
2019-05-12T06:34:43.535Z,69.21
2019-05-12T06:37:25.623Z,68.85
2019-05-12T06:40:00.606Z,68.03
2019-05-12T06:42:34.743Z,67.89
2019-05-12T06:45:08.330Z,67.73
2019-05-12T06:47:45.407Z,68.24
2019-05-12T06:50:17.156Z,67.94
2019-05-12T06:52:50.298Z,67.43
2019-05-12T06:55:23.871Z,66.81
2019-05-12T06:57:58.207Z,67.62
2019-05-12T07:00:40.479Z,66.62
2019-05-12T07:03:14.381Z,65.69
2019-05-12T07:05:49.308Z,65.49
2019-05-12T07:08:29.988Z,65.42
2019-05-12T07:11:01.930Z,65.60
2019-05-12T07:13:34.283Z,66.00
2019-05-12T07:16:19.311Z,64.98
2019-05-12T07:18:50.803Z,63.90
2019-05-12T07:21:27.335Z,64.40
2019-05-12T07:24:06.610Z,64.86
2019-05-12T07:26:35.979Z,64.49
2019-05-12T07:29:09.422Z,64.18
2019-05-12T07:31:44.210Z,63.25
2019-05-12T07:34:18.137Z,63.60
2019-05-12T07:36:54.067Z,63.56
2019-05-12T07:39:47.808Z,59.56
2019-05-12T07:42:15.272Z,58.22
2019-05-12T07:45:03.797Z,57.27
2019-05-12T07:47:48.982Z,58.99
2019-05-12T07:50:34.223Z,58.60
2019-05-12T07:53:16.255Z,57.22
2019-05-12T07:55:58.566Z,55.61
2019-05-12T07:58:33.315Z,54.27
2019-05-12T08:01:08.037Z,51.20
2019-05-12T08:03:43.538Z,52.40
2019-05-12T08:06:25.526Z,53.21
2019-05-12T08:08:59.203Z,51.70
2019-05-12T08:11:43.412Z,51.58
2019-05-12T08:14:25.839Z,52.22
2019-05-12T08:16:54.310Z,52.69
2019-05-12T08:19:28.690Z,51.38
2019-05-12T08:22:04.314Z,52.17
2019-05-12T08:24:43.222Z,52.77
2019-05-12T08:27:14.289Z,55.59
2019-05-12T08:29:54.403Z,52.52
2019-05-12T08:32:27.180Z,53.98
2019-05-12T08:35:14.103Z,54.13
2019-05-12T08:37:56.889Z,51.52
2019-05-12T08:40:46.391Z,51.14
2019-05-12T08:43:18.997Z,50.20
2019-05-12T08:45:53.584Z,51.08
2019-05-12T08:48:27.519Z,50.47
2019-05-12T08:51:05.363Z,50.81
2019-05-12T08:53:38.784Z,49.94
2019-05-12T08:56:23.992Z,48.67
2019-05-12T08:58:56.944Z,49.78
2019-05-12T09:01:39.154Z,47.23
2019-05-12T09:04:18.093Z,47.46
2019-05-12T09:06:59.888Z,48.61
2019-05-12T09:09:33.772Z,48.92
2019-05-12T09:12:16.806Z,49.90
2019-05-12T09:14:59.127Z,50.37
2019-05-12T09:17:34.703Z,51.00
2019-05-12T09:20:17.055Z,49.85
2019-05-12T09:22:52.775Z,49.90
2019-05-12T09:25:39.334Z,48.99
2019-05-12T09:28:28.046Z,49.79
2019-05-12T09:31:03.707Z,45.84
2019-05-12T09:33:46.245Z,46.19
2019-05-12T09:36:29.488Z,45.56
2019-05-12T09:39:05.705Z,46.39
2019-05-12T09:41:42.344Z,47.59
2019-05-12T09:44:13.443Z,49.11
2019-05-12T09:46:47.156Z,50.54
2019-05-12T09:49:22.800Z,49.03
2019-05-12T09:51:56.495Z,48.46
2019-05-12T09:54:35.250Z,47.27
2019-05-12T09:57:04.833Z,43.38
2019-05-12T09:59:37.985Z,43.54
2019-05-12T10:02:21.000Z,41.87
2019-05-12T10:05:00.558Z,44.09
2019-05-12T10:07:31.240Z,45.77
2019-05-12T10:10:14.227Z,45.34
2019-05-12T10:12:56.434Z,45.98
2019-05-12T10:15:30.354Z,46.38
2019-05-12T10:18:06.353Z,48.66
2019-05-12T10:20:48.127Z,47.63
2019-05-12T10:23:25.154Z,45.54
2019-05-12T10:25:55.759Z,44.04
2019-05-12T10:28:43.712Z,46.16
2019-05-12T10:31:18.650Z,46.43
2019-05-12T10:34:24.019Z,48.19
2019-05-12T10:37:09.998Z,46.49
2019-05-12T10:39:54.136Z,45.43
2019-05-12T10:42:27.706Z,44.84
2019-05-12T10:45:03.941Z,44.99
2019-05-12T10:47:36.955Z,46.70
2019-05-12T10:50:19.534Z,46.92
2019-05-12T10:52:53.724Z,45.93
2019-05-12T10:55:36.672Z,45.99
2019-05-12T10:58:10.251Z,44.51
2019-05-12T11:00:44.487Z,45.02
2019-05-12T11:03:18.284Z,46.75
2019-05-12T11:05:54.632Z,46.24
2019-05-12T11:08:26.716Z,45.63
2019-05-12T11:11:01.327Z,45.46
2019-05-12T11:13:46.164Z,46.05
2019-05-12T11:16:22.716Z,45.03
2019-05-12T11:18:54.193Z,44.92
2019-05-12T11:21:39.359Z,44.89
2019-05-12T11:24:13.867Z,46.23
2019-05-12T11:26:47.859Z,46.68
2019-05-12T11:29:23.366Z,43.03
2019-05-12T11:31:57.539Z,41.35
2019-05-12T11:34:39.751Z,42.05
2019-05-12T11:37:13.873Z,42.68
2019-05-12T11:39:47.696Z,43.03
2019-05-12T11:42:21.240Z,43.86
2019-05-12T11:44:55.163Z,45.33
2019-05-12T11:47:29.463Z,44.22
2019-05-12T11:50:13.283Z,42.34
2019-05-12T11:52:51.023Z,42.01
2019-05-12T11:55:29.400Z,40.63
2019-05-12T11:58:00.371Z,40.05
2019-05-12T12:00:37.839Z,38.76
2019-05-12T12:03:24.416Z,39.03
2019-05-12T12:06:06.502Z,38.20
2019-05-12T12:08:40.373Z,38.90
2019-05-12T12:11:18.851Z,37.89
2019-05-12T12:13:53.398Z,38.71
2019-05-12T12:16:34.923Z,38.88
2019-05-12T12:19:08.319Z,37.56
2019-05-12T12:21:48.088Z,37.63
2019-05-12T12:24:31.165Z,36.02
2019-05-12T12:27:10.797Z,34.12
2019-05-12T12:29:44.156Z,36.71
2019-05-12T12:32:20.321Z,37.80
2019-05-12T12:34:54.398Z,38.24
2019-05-12T12:37:28.031Z,38.97
2019-05-12T12:40:04.257Z,38.18
2019-05-12T12:42:44.175Z,36.15
2019-05-12T12:45:36.857Z,36.05
2019-05-12T12:48:08.656Z,36.29
2019-05-12T12:50:44.376Z,37.98
2019-05-12T12:53:27.607Z,37.59
2019-05-12T12:56:01.431Z,36.14
2019-05-12T12:58:34.978Z,36.78
2019-05-12T13:01:14.174Z,36.86
2019-05-12T13:03:44.694Z,36.58
2019-05-12T13:06:34.575Z,38.91
2019-05-12T13:09:21.941Z,38.86
2019-05-12T13:11:55.541Z,37.42
2019-05-12T13:14:38.464Z,39.34
2019-05-12T13:17:20.618Z,39.46
2019-05-12T13:19:58.543Z,39.10
2019-05-12T13:22:29.976Z,38.71
2019-05-12T13:25:18.213Z,36.95
2019-05-12T13:27:53.403Z,36.70
2019-05-12T13:30:26.646Z,37.84
2019-05-12T13:33:00.684Z,38.72
2019-05-12T13:35:50.322Z,39.93
2019-05-12T13:38:23.619Z,40.68
2019-05-12T13:40:57.004Z,39.51
2019-05-12T13:43:30.243Z,38.56
2019-05-12T13:46:03.772Z,38.22
2019-05-12T13:48:38.407Z,38.08
2019-05-12T13:51:20.939Z,37.67
2019-05-12T13:54:03.919Z,37.95
2019-05-12T13:56:38.361Z,38.01
2019-05-12T13:59:12.070Z,38.25
2019-05-12T14:01:47.649Z,39.56
2019-05-12T14:04:30.284Z,38.72
2019-05-12T14:07:09.241Z,39.17
2019-05-12T14:09:39.649Z,39.76
2019-05-12T14:12:22.343Z,39.45
2019-05-12T14:15:05.394Z,40.03
2019-05-12T14:17:43.496Z,38.34
2019-05-12T14:20:25.848Z,38.63
2019-05-12T14:22:59.760Z,36.75
2019-05-12T14:25:46.870Z,38.18
2019-05-12T14:28:33.657Z,36.35
2019-05-12T14:31:05.306Z,37.14
2019-05-12T14:33:39.473Z,34.76
2019-05-12T14:36:21.607Z,36.41
2019-05-12T14:38:49.521Z,36.59
2019-05-12T14:41:26.803Z,34.45
2019-05-12T14:44:03.451Z,35.23
2019-05-12T14:46:40.173Z,35.23
2019-05-12T14:49:11.453Z,36.22
2019-05-12T14:51:53.739Z,34.99
2019-05-12T14:54:40.543Z,34.68
2019-05-12T14:57:29.449Z,34.98
2019-05-12T15:00:11.285Z,36.83
2019-05-12T15:03:05.448Z,35.98
2019-05-12T15:05:36.321Z,36.81
2019-05-12T15:08:09.818Z,36.34
2019-05-12T15:10:43.784Z,37.48
2019-05-12T15:13:17.279Z,38.36
2019-05-12T15:15:58.136Z,38.98
2019-05-12T15:18:26.395Z,39.04
2019-05-12T15:20:59.925Z,39.73
2019-05-12T15:23:37.207Z,39.47
2019-05-12T15:26:15.841Z,40.06
2019-05-12T15:28:45.734Z,39.51
2019-05-12T15:31:27.977Z,39.69
2019-05-12T15:34:03.611Z,39.34
2019-05-12T15:36:52.135Z,39.64
2019-05-12T15:39:21.817Z,39.22
2019-05-12T15:42:04.309Z,40.70
2019-05-12T15:44:38.555Z,40.75
2019-05-12T15:47:26.657Z,41.46
2019-05-12T15:50:05.371Z,40.76
2019-05-12T15:52:48.394Z,42.09
2019-05-12T15:55:36.788Z,39.46
2019-05-12T15:58:10.056Z,39.41
2019-05-12T16:00:50.182Z,39.91
2019-05-12T16:03:26.339Z,39.84
2019-05-12T16:06:01.349Z,40.26
2019-05-12T16:08:34.420Z,40.35
2019-05-12T16:11:16.834Z,38.96
2019-05-12T16:13:54.695Z,39.42
2019-05-12T16:16:27.441Z,39.70
2019-05-12T16:19:08.414Z,38.06
2019-05-12T16:21:54.997Z,38.50
2019-05-12T16:24:29.609Z,37.79
2019-05-12T16:27:03.630Z,36.43
2019-05-12T16:29:58.793Z,36.40
2019-05-12T16:32:39.221Z,38.11
2019-05-12T16:35:07.980Z,39.18
2019-05-12T16:37:53.328Z,39.49
2019-05-12T16:40:27.012Z,38.06
2019-05-12T16:43:00.904Z,37.51
2019-05-12T16:45:34.845Z,37.32
2019-05-12T16:48:26.641Z,35.80
2019-05-12T16:50:57.207Z,35.24
2019-05-12T16:53:30.671Z,35.64
2019-05-12T16:56:05.829Z,35.86
2019-05-12T16:58:44.504Z,37.30
2019-05-12T17:01:24.250Z,38.32
2019-05-12T17:03:55.105Z,39.11
2019-05-12T17:06:34.974Z,39.18
2019-05-12T17:09:06.629Z,39.33
2019-05-12T17:11:47.161Z,40.35
2019-05-12T17:14:14.833Z,40.82
2019-05-12T17:16:57.044Z,41.43
2019-05-12T17:19:30.983Z,40.72
2019-05-12T17:22:04.241Z,41.34
2019-05-12T17:24:38.111Z,41.79
2019-05-12T17:27:15.874Z,40.30
2019-05-12T17:29:48.156Z,40.11
2019-05-12T17:32:23.771Z,40.61
2019-05-12T17:34:57.729Z,41.46
2019-05-12T17:37:41.510Z,41.48
2019-05-12T17:40:20.012Z,42.78
2019-05-12T17:43:06.710Z,42.65
2019-05-12T17:45:34.736Z,43.26
2019-05-12T17:48:08.202Z,44.03
2019-05-12T17:50:46.686Z,44.55
2019-05-12T17:53:17.934Z,45.13
2019-05-12T17:55:53.989Z,45.08
2019-05-12T17:58:29.707Z,45.69
2019-05-12T18:01:03.687Z,46.33
2019-05-12T18:03:39.371Z,46.17
2019-05-12T18:06:14.124Z,46.01
2019-05-12T18:08:48.352Z,46.71
2019-05-12T18:11:23.920Z,47.51
2019-05-12T18:14:02.348Z,48.34
2019-05-12T18:16:33.901Z,48.78
2019-05-12T18:19:09.028Z,48.81
2019-05-12T18:21:44.919Z,49.61
2019-05-12T18:24:17.957Z,50.09
2019-05-12T18:26:56.674Z,50.34
2019-05-12T18:29:44.074Z,50.82
2019-05-12T18:32:17.826Z,51.32
2019-05-12T18:35:04.257Z,51.91
2019-05-12T18:37:54.015Z,52.39
2019-05-12T18:40:42.478Z,53.24
2019-05-12T18:43:16.223Z,53.38
2019-05-12T18:45:57.076Z,53.98
2019-05-12T18:48:25.295Z,54.31
2019-05-12T18:51:11.835Z,54.79
2019-05-12T18:53:57.754Z,54.88
2019-05-12T18:56:29.500Z,55.42
2019-05-12T18:59:11.604Z,55.54
2019-05-12T19:01:38.582Z,56.28
2019-05-12T19:04:14.161Z,55.82
2019-05-12T19:06:46.931Z,55.68
2019-05-12T19:09:20.387Z,55.80
2019-05-12T19:11:53.840Z,56.28
2019-05-12T19:14:34.916Z,56.67
2019-05-12T19:17:03.568Z,56.80
2019-05-12T19:19:46.204Z,57.27
2019-05-12T19:22:21.131Z,57.12
2019-05-12T19:24:56.735Z,57.36
2019-05-12T19:27:29.131Z,57.42
2019-05-12T19:30:13.815Z,57.92
2019-05-12T19:33:00.120Z,58.23
2019-05-12T19:35:33.632Z,58.38
2019-05-12T19:38:15.749Z,58.75
2019-05-12T19:40:55.111Z,58.93
2019-05-12T19:43:23.865Z,59.28
2019-05-12T19:46:03.654Z,59.53
2019-05-12T19:48:47.626Z,59.83
2019-05-12T19:51:23.672Z,60.41
2019-05-12T19:53:45.425Z,60.95
2019-05-12T19:56:34.588Z,60.91
2019-05-12T19:59:04.402Z,61.13
2019-05-12T20:01:37.961Z,61.60
2019-05-12T20:04:13.950Z,61.99
2019-05-12T20:06:46.678Z,62.32
2019-05-12T20:09:20.869Z,62.61
2019-05-12T20:12:09.994Z,62.75
2019-05-12T20:14:38.443Z,63.00
2019-05-12T20:17:11.881Z,63.50
2019-05-12T20:19:45.493Z,63.48
2019-05-12T20:22:18.985Z,63.82
2019-05-12T20:24:53.720Z,64.04
2019-05-12T20:27:27.085Z,64.16
2019-05-12T20:30:43.656Z,64.47
2019-05-12T20:33:14.351Z,64.81
2019-05-12T20:35:49.313Z,65.25
2019-05-12T20:38:26.440Z,65.58
2019-05-12T20:40:58.312Z,65.90
2019-05-12T20:43:37.165Z,66.04
2019-05-12T20:46:12.963Z,66.35
2019-05-12T20:48:44.605Z,66.57
2019-05-12T20:51:20.346Z,66.53
2019-05-12T20:53:54.356Z,66.66
2019-05-12T20:56:26.953Z,66.94
2019-05-12T20:59:00.439Z,67.15
2019-05-12T21:01:33.961Z,67.11
2019-05-12T21:04:07.736Z,67.40
2019-05-12T21:06:50.577Z,67.65
2019-05-12T21:09:24.204Z,67.60
2019-05-12T21:11:57.716Z,67.65
2019-05-12T21:14:33.414Z,68.18
2019-05-12T21:17:18.392Z,67.97
2019-05-12T21:20:04.522Z,67.98
2019-05-12T21:22:47.056Z,68.25
2019-05-12T21:25:23.181Z,68.40
2019-05-12T21:28:07.705Z,68.54
2019-05-12T21:30:42.331Z,68.51
2019-05-12T21:33:16.982Z,68.78
2019-05-12T21:35:50.512Z,68.82
2019-05-12T21:38:27.607Z,69.05
2019-05-12T21:41:02.210Z,69.03
2019-05-12T21:43:44.513Z,69.28
2019-05-12T21:46:19.355Z,69.65
2019-05-12T21:49:10.652Z,70.06
2019-05-12T21:51:58.934Z,70.10
2019-05-12T21:54:29.437Z,70.00
2019-05-12T21:57:02.078Z,70.41
2019-05-12T21:59:39.583Z,70.62
2019-05-12T22:02:19.638Z,70.69
2019-05-12T22:04:56.084Z,70.82
2019-05-12T22:07:29.415Z,70.69
2019-05-12T22:10:04.916Z,70.91
2019-05-12T22:12:47.545Z,71.26
2019-05-12T22:15:24.589Z,71.32
2019-05-12T22:18:00.906Z,71.40
2019-05-12T22:20:46.230Z,71.73
2019-05-12T22:23:18.807Z,71.82
2019-05-12T22:25:55.582Z,71.77
2019-05-12T22:28:27.580Z,71.97
2019-05-12T22:31:01.273Z,71.89
2019-05-12T22:33:34.511Z,72.31
2019-05-12T22:36:14.660Z,72.23
2019-05-12T22:38:45.547Z,72.44
2019-05-12T22:41:30.270Z,72.65
2019-05-12T22:44:03.229Z,72.94
2019-05-12T22:46:38.039Z,72.90
2019-05-12T22:49:16.970Z,72.98
2019-05-12T22:52:02.641Z,72.82
2019-05-12T22:54:33.690Z,73.09
2019-05-12T22:57:17.076Z,73.52
2019-05-12T22:59:50.277Z,73.65
2019-05-12T23:02:28.881Z,73.68
2019-05-12T23:05:10.213Z,73.80
2019-05-12T23:07:43.948Z,73.90
2019-05-12T23:10:17.486Z,73.68
2019-05-12T23:12:57.023Z,73.77
2019-05-12T23:15:26.002Z,73.87
2019-05-12T23:17:59.156Z,73.92
2019-05-12T23:20:43.920Z,73.84
2019-05-12T23:23:25.836Z,74.33
2019-05-12T23:26:00.423Z,74.53
2019-05-12T23:28:40.460Z,74.35
2019-05-12T23:31:13.275Z,74.35
2019-05-12T23:33:50.665Z,74.91
2019-05-12T23:36:35.258Z,75.29
2019-05-12T23:39:00.789Z,75.54
2019-05-12T23:41:48.706Z,75.62
2019-05-12T23:44:23.943Z,75.86
2019-05-12T23:46:57.695Z,76.09
2019-05-12T23:49:33.106Z,76.50
2019-05-12T23:52:06.316Z,76.76
2019-05-12T23:54:39.863Z,76.59
2019-05-12T23:57:15.742Z,76.58
2019-05-12T23:59:50.521Z,76.61
